createdAt,value
2019-03-08T00:00:59.764Z,6.90
2019-03-08T00:03:41.415Z,6.90
2019-03-08T00:06:17.002Z,6.80
2019-03-08T00:08:52.696Z,6.90
2019-03-08T00:11:28.292Z,7.00
2019-03-08T00:14:03.786Z,7.00
2019-03-08T00:16:32.582Z,7.00
2019-03-08T00:19:01.490Z,7.10
2019-03-08T00:21:36.732Z,7.00
2019-03-08T00:24:05.498Z,7.00
2019-03-08T00:26:34.188Z,7.10
2019-03-08T00:29:09.668Z,7.20
2019-03-08T00:31:38.787Z,7.10
2019-03-08T00:34:07.483Z,7.10
2019-03-08T00:36:43.178Z,7.10
2019-03-08T00:39:11.875Z,7.10
2019-03-08T00:41:40.579Z,7.00
2019-03-08T00:44:16.087Z,7.00
2019-03-08T00:46:45.353Z,7.10
2019-03-08T00:49:14.080Z,7.30
2019-03-08T00:51:49.624Z,7.10
2019-03-08T00:54:18.359Z,7.00
2019-03-08T00:56:47.453Z,7.10
2019-03-08T00:59:23.112Z,7.00
2019-03-08T01:01:51.914Z,7.00
2019-03-08T01:04:34.197Z,6.90
2019-03-08T01:07:10.024Z,7.00
2019-03-08T01:09:45.651Z,7.00
2019-03-08T01:12:21.369Z,6.90
2019-03-08T01:14:56.567Z,7.00
2019-03-08T01:17:25.382Z,7.00
2019-03-08T01:19:54.219Z,7.00
2019-03-08T01:22:29.212Z,7.00
2019-03-08T01:24:57.978Z,7.00
2019-03-08T01:27:26.746Z,7.00
2019-03-08T01:30:03.386Z,6.90
2019-03-08T01:32:32.183Z,6.90
2019-03-08T01:35:00.950Z,6.90
2019-03-08T01:37:35.947Z,7.00
2019-03-08T01:40:05.314Z,6.90
2019-03-08T01:42:34.052Z,6.90
2019-03-08T01:45:09.320Z,6.80
2019-03-08T01:47:38.471Z,6.90
2019-03-08T01:50:07.646Z,6.90
2019-03-08T01:52:42.563Z,6.90
2019-03-08T01:55:11.508Z,7.00
2019-03-08T01:57:40.194Z,6.90
2019-03-08T02:00:18.138Z,6.90
2019-03-08T02:02:46.974Z,6.90
2019-03-08T02:05:29.451Z,6.90
2019-03-08T02:08:04.981Z,6.80
2019-03-08T02:10:40.534Z,6.90
2019-03-08T02:13:16.375Z,6.90
2019-03-08T02:15:52.067Z,6.90
2019-03-08T02:18:20.851Z,6.80
2019-03-08T02:20:49.673Z,6.90
2019-03-08T02:23:25.001Z,6.90
2019-03-08T02:25:53.931Z,6.90
2019-03-08T02:28:22.674Z,6.90
2019-03-08T02:30:58.823Z,6.90
2019-03-08T02:33:27.570Z,7.00
2019-03-08T02:35:56.305Z,7.10
2019-03-08T02:38:31.951Z,7.00
2019-03-08T02:41:00.689Z,7.00
2019-03-08T02:43:29.474Z,7.00
2019-03-08T02:46:04.607Z,7.10
2019-03-08T02:48:33.322Z,7.00
2019-03-08T02:51:02.088Z,7.20
2019-03-08T02:53:37.130Z,7.10
2019-03-08T02:56:05.871Z,7.00
2019-03-08T02:58:35.492Z,7.10
2019-03-08T03:01:10.820Z,7.10
2019-03-08T03:03:39.529Z,7.10
2019-03-08T03:06:21.235Z,7.10
2019-03-08T03:08:56.617Z,7.10
2019-03-08T03:11:32.251Z,7.20
2019-03-08T03:14:08.017Z,7.20
2019-03-08T03:16:43.260Z,7.20
2019-03-08T03:19:11.998Z,7.10
2019-03-08T03:21:40.799Z,7.10
2019-03-08T03:24:15.763Z,7.20
2019-03-08T03:26:44.546Z,7.20
2019-03-08T03:29:13.261Z,7.30
2019-03-08T03:31:48.770Z,7.30
2019-03-08T03:34:17.485Z,7.30
2019-03-08T03:36:46.266Z,7.40
2019-03-08T03:39:22.106Z,7.40
2019-03-08T03:41:50.822Z,7.40
2019-03-08T03:44:19.963Z,7.40
2019-03-08T03:46:55.289Z,7.40
2019-03-08T03:49:23.987Z,7.40
2019-03-08T03:51:52.705Z,7.40
2019-03-08T03:54:28.545Z,7.50
2019-03-08T03:56:57.330Z,7.50
2019-03-08T03:59:26.077Z,7.50
2019-03-08T04:02:01.602Z,7.50
2019-03-08T04:04:36.554Z,7.40
2019-03-08T04:07:17.514Z,7.40
2019-03-08T04:09:46.627Z,7.40
2019-03-08T04:12:15.469Z,7.40
2019-03-08T04:14:57.296Z,7.50
2019-03-08T04:17:26.000Z,7.50
2019-03-08T04:19:54.722Z,7.60
2019-03-08T04:22:30.104Z,7.60
2019-03-08T04:24:58.993Z,7.60
2019-03-08T04:27:27.797Z,7.50
2019-03-08T04:30:02.662Z,7.40
2019-03-08T04:32:31.394Z,7.50
2019-03-08T04:35:00.262Z,7.50
2019-03-08T04:37:35.911Z,7.50
2019-03-08T04:40:05.527Z,7.60
2019-03-08T04:42:34.331Z,7.50
2019-03-08T04:45:09.237Z,7.60
2019-03-08T04:47:37.947Z,7.60
2019-03-08T04:50:07.024Z,7.70
2019-03-08T04:52:42.633Z,7.90
2019-03-08T04:55:12.865Z,7.80
2019-03-08T04:57:41.605Z,7.90
2019-03-08T05:00:18.686Z,7.80
2019-03-08T05:02:47.560Z,7.80
2019-03-08T05:05:29.744Z,7.90
2019-03-08T05:08:05.182Z,7.90
2019-03-08T05:10:40.893Z,7.90
2019-03-08T05:13:09.640Z,8.00
2019-03-08T05:15:51.309Z,8.00
2019-03-08T05:18:20.101Z,7.90
2019-03-08T05:20:48.827Z,7.90
2019-03-08T05:23:24.499Z,8.00
2019-03-08T05:25:53.519Z,8.00
2019-03-08T05:28:22.280Z,8.10
2019-03-08T05:30:58.244Z,8.10
2019-03-08T05:33:27.190Z,8.10
2019-03-08T05:35:55.995Z,8.10
2019-03-08T05:38:31.531Z,8.10
2019-03-08T05:41:00.261Z,8.00
2019-03-08T05:43:29.022Z,8.10
2019-03-08T05:46:04.415Z,8.10
2019-03-08T05:48:33.115Z,8.10
2019-03-08T05:51:01.980Z,8.10
2019-03-08T05:53:37.783Z,8.10
2019-03-08T05:56:06.478Z,8.10
2019-03-08T05:58:35.261Z,8.20
2019-03-08T06:01:11.219Z,8.20
2019-03-08T06:03:39.940Z,8.20
2019-03-08T06:06:21.460Z,8.20
2019-03-08T06:08:58.159Z,8.20
2019-03-08T06:11:33.756Z,8.20
2019-03-08T06:14:02.632Z,8.30
2019-03-08T06:16:44.897Z,8.30
2019-03-08T06:19:13.665Z,8.20
2019-03-08T06:21:42.371Z,8.20
2019-03-08T06:24:17.892Z,8.20
2019-03-08T06:26:46.684Z,8.30
2019-03-08T06:29:15.523Z,8.20
2019-03-08T06:31:51.018Z,8.40
2019-03-08T06:34:19.839Z,8.30
2019-03-08T06:36:48.868Z,8.30
2019-03-08T06:39:24.621Z,8.30
2019-03-08T06:41:53.849Z,8.40
2019-03-08T06:44:22.856Z,8.50
2019-03-08T06:46:58.498Z,8.50
2019-03-08T06:49:27.205Z,8.50
2019-03-08T06:51:55.981Z,8.50
2019-03-08T06:54:31.510Z,8.50
2019-03-08T06:57:00.177Z,8.50
2019-03-08T06:59:43.831Z,8.40
2019-03-08T07:02:13.083Z,8.40
2019-03-08T07:04:41.787Z,8.30
2019-03-08T07:07:17.188Z,8.30
2019-03-08T07:09:53.057Z,8.20
2019-03-08T07:12:28.807Z,8.20
2019-03-08T07:14:57.571Z,8.30
2019-03-08T07:17:40.346Z,8.20
2019-03-08T07:20:29.483Z,8.30
2019-03-08T07:23:14.228Z,8.30
2019-03-08T07:26:08.450Z,8.30
2019-03-08T07:29:01.436Z,8.40
2019-03-08T07:31:43.252Z,8.50
2019-03-08T07:34:29.721Z,8.50
2019-03-08T07:37:22.219Z,8.50
2019-03-08T07:40:08.101Z,8.50
2019-03-08T07:42:59.260Z,8.60
2019-03-08T07:46:06.172Z,8.60
2019-03-08T07:48:53.060Z,8.60
2019-03-08T07:51:37.058Z,8.70
2019-03-08T07:54:21.976Z,8.70
2019-03-08T07:57:16.631Z,8.70
2019-03-08T07:59:57.022Z,8.60
2019-03-08T08:02:44.392Z,8.60
2019-03-08T08:05:57.547Z,8.60
2019-03-08T08:08:40.623Z,8.60
2019-03-08T08:11:33.641Z,8.60
2019-03-08T08:14:21.616Z,8.60
2019-03-08T08:17:02.376Z,8.60
2019-03-08T08:20:00.596Z,8.70
2019-03-08T08:22:39.879Z,8.70
2019-03-08T08:25:38.532Z,8.70
2019-03-08T08:28:26.769Z,8.70
2019-03-08T08:31:19.656Z,8.70
2019-03-08T08:34:13.328Z,8.80
2019-03-08T08:36:59.216Z,8.80
2019-03-08T08:39:52.759Z,8.90
2019-03-08T08:42:49.777Z,8.90
2019-03-08T08:45:37.650Z,8.90
2019-03-08T08:48:21.751Z,8.80
2019-03-08T08:50:56.131Z,8.90
2019-03-08T08:53:49.443Z,8.90
2019-03-08T08:56:46.785Z,8.90
2019-03-08T08:59:37.910Z,8.80
2019-03-08T09:02:24.473Z,8.80
2019-03-08T09:05:08.674Z,8.80
2019-03-08T09:07:49.076Z,8.70
2019-03-08T09:10:39.257Z,8.70
2019-03-08T09:13:29.799Z,8.80
2019-03-08T09:16:16.700Z,8.80
2019-03-08T09:19:07.153Z,8.80
2019-03-08T09:22:20.931Z,8.90
2019-03-08T09:25:17.681Z,8.90
2019-03-08T09:28:09.790Z,8.90
2019-03-08T09:30:50.769Z,9.00
2019-03-08T09:33:44.395Z,9.00
2019-03-08T09:36:27.781Z,9.00
2019-03-08T09:39:20.951Z,8.80
2019-03-08T09:42:08.269Z,8.70
2019-03-08T09:44:59.793Z,8.60
2019-03-08T09:47:40.624Z,8.60
2019-03-08T09:50:36.024Z,8.50
2019-03-08T09:53:15.596Z,8.50
2019-03-08T09:56:18.848Z,8.50
2019-03-08T09:58:58.410Z,8.40
2019-03-08T10:01:52.586Z,8.40
2019-03-08T10:04:31.911Z,8.30
2019-03-08T10:07:22.450Z,8.30
2019-03-08T10:10:20.016Z,8.40
2019-03-08T10:13:20.184Z,8.40
2019-03-08T10:15:59.454Z,8.30
2019-03-08T10:18:54.506Z,8.10
2019-03-08T10:21:41.864Z,7.90
2019-03-08T10:24:43.635Z,7.80
2019-03-08T10:27:22.496Z,7.90
2019-03-08T10:30:13.784Z,8.00
2019-03-08T10:32:52.186Z,8.00
2019-03-08T10:35:41.942Z,7.90
2019-03-08T10:38:36.552Z,8.00
2019-03-08T10:41:34.474Z,8.10
2019-03-08T10:44:11.875Z,8.20
2019-03-08T10:47:12.236Z,8.20
2019-03-08T10:50:06.623Z,8.20
2019-03-08T10:53:08.151Z,8.40
2019-03-08T10:56:11.106Z,8.50
2019-03-08T10:59:10.983Z,8.60
2019-03-08T11:01:57.456Z,8.40
2019-03-08T11:04:41.926Z,8.20
2019-03-08T11:07:18.451Z,7.90
2019-03-08T11:10:13.912Z,7.40
2019-03-08T11:13:02.308Z,6.90
2019-03-08T11:16:05.581Z,6.70
2019-03-08T11:18:44.469Z,6.60
2019-03-08T11:21:38.115Z,6.80
2019-03-08T11:24:34.966Z,7.00
2019-03-08T11:27:29.452Z,7.20
2019-03-08T11:30:22.295Z,7.40
2019-03-08T11:33:16.376Z,7.40
2019-03-08T11:35:59.807Z,7.50
2019-03-08T11:38:53.165Z,7.70
2019-03-08T11:41:26.749Z,7.50
2019-03-08T11:44:14.257Z,7.40
2019-03-08T11:47:22.963Z,7.60
2019-03-08T11:50:15.492Z,7.60
2019-03-08T11:53:18.580Z,7.70
2019-03-08T11:56:11.011Z,7.90
2019-03-08T11:59:07.869Z,8.20
2019-03-08T12:01:52.187Z,8.80
2019-03-08T12:04:36.682Z,9.20
2019-03-08T12:07:40.651Z,9.00
2019-03-08T12:10:27.065Z,9.20
2019-03-08T12:13:18.788Z,9.00
2019-03-08T12:16:03.670Z,9.10
2019-03-08T12:18:59.483Z,9.00
2019-03-08T12:21:54.396Z,9.00
2019-03-08T12:24:57.682Z,8.70
2019-03-08T12:27:52.665Z,8.80
2019-03-08T12:30:37.689Z,9.60
2019-03-08T12:33:13.591Z,9.40
2019-03-08T12:36:20.073Z,9.70
2019-03-08T12:39:07.657Z,10.10
2019-03-08T12:42:14.916Z,10.30
2019-03-08T12:44:53.665Z,10.30
2019-03-08T12:48:00.755Z,9.20
2019-03-08T12:50:51.922Z,8.00
2019-03-08T12:53:46.965Z,7.70
2019-03-08T12:56:23.797Z,7.60
2019-03-08T12:59:24.295Z,7.70
2019-03-08T13:02:12.779Z,7.70
2019-03-08T13:05:07.614Z,7.80
2019-03-08T13:08:01.392Z,7.90
2019-03-08T13:10:44.010Z,7.90
2019-03-08T13:13:26.195Z,8.10
2019-03-08T13:16:03.766Z,8.10
2019-03-08T13:18:33.013Z,8.10
2019-03-08T13:21:01.882Z,8.00
2019-03-08T13:23:37.673Z,8.10
2019-03-08T13:26:06.596Z,8.20
2019-03-08T13:28:48.976Z,8.30
2019-03-08T13:31:17.693Z,8.40
2019-03-08T13:33:46.466Z,8.40
2019-03-08T13:36:22.674Z,8.50
2019-03-08T13:38:51.557Z,8.70
2019-03-08T13:41:20.667Z,8.80
2019-03-08T13:43:56.061Z,8.70
2019-03-08T13:46:24.769Z,8.90
2019-03-08T13:48:53.448Z,8.80
2019-03-08T13:51:29.043Z,8.70
2019-03-08T13:53:58.209Z,8.40
2019-03-08T13:56:27.399Z,8.30
2019-03-08T13:59:02.469Z,8.20
2019-03-08T14:01:31.168Z,8.20
2019-03-08T14:03:59.910Z,8.20
2019-03-08T14:06:36.212Z,8.30
2019-03-08T14:09:07.607Z,8.40
2019-03-08T14:11:49.640Z,8.40
2019-03-08T14:14:25.698Z,8.50
2019-03-08T14:17:00.789Z,8.40
2019-03-08T14:19:29.891Z,8.40
2019-03-08T14:21:59.745Z,8.50
2019-03-08T14:24:36.193Z,8.50
2019-03-08T14:27:05.821Z,8.50
2019-03-08T14:29:48.092Z,8.50
2019-03-08T14:32:25.379Z,8.40
2019-03-08T14:34:59.537Z,8.30
2019-03-08T14:37:29.009Z,8.20
2019-03-08T14:39:58.546Z,8.10
2019-03-08T14:42:45.385Z,8.20
2019-03-08T14:45:21.813Z,8.20
2019-03-08T14:48:01.003Z,8.20
2019-03-08T14:50:31.965Z,8.20
2019-03-08T14:53:02.002Z,8.20
2019-03-08T14:55:38.572Z,8.20
2019-03-08T14:58:08.247Z,8.10
2019-03-08T15:00:37.877Z,8.10
2019-03-08T15:03:14.952Z,8.10
2019-03-08T15:05:44.805Z,8.10
2019-03-08T15:08:17.834Z,8.20
2019-03-08T15:10:52.731Z,8.20
2019-03-08T15:13:28.656Z,8.10
2019-03-08T15:16:04.584Z,8.20
2019-03-08T15:18:34.284Z,8.20
2019-03-08T15:21:03.915Z,8.10
2019-03-08T15:23:39.543Z,8.20
2019-03-08T15:26:08.549Z,8.30
2019-03-08T15:28:38.909Z,8.50
2019-03-08T15:31:22.833Z,8.50
2019-03-08T15:33:59.793Z,8.50
2019-03-08T15:36:42.223Z,8.40
2019-03-08T15:39:30.215Z,8.40
2019-03-08T15:42:05.541Z,8.30
2019-03-08T15:44:34.258Z,8.30
2019-03-08T15:47:03.045Z,8.20
2019-03-08T15:49:38.111Z,8.20
2019-03-08T15:52:06.776Z,8.10
2019-03-08T15:54:35.772Z,8.10
2019-03-08T15:57:11.680Z,8.00
2019-03-08T15:59:40.392Z,8.00
2019-03-08T16:02:09.222Z,8.00
2019-03-08T16:04:45.755Z,7.90
2019-03-08T16:07:18.862Z,7.90
2019-03-08T16:09:46.300Z,7.90
2019-03-08T16:12:21.404Z,7.80
2019-03-08T16:14:50.142Z,7.80
2019-03-08T16:17:18.897Z,7.80
2019-03-08T16:19:54.421Z,7.70
2019-03-08T16:22:24.735Z,7.70
2019-03-08T16:24:54.062Z,7.70
2019-03-08T16:27:29.673Z,7.50
2019-03-08T16:29:58.314Z,7.50
2019-03-08T16:33:14.102Z,7.40
2019-03-08T16:35:57.810Z,7.40
2019-03-08T16:38:50.899Z,7.40
2019-03-08T16:41:48.459Z,7.40
2019-03-08T16:44:48.054Z,7.30
2019-03-08T16:47:50.047Z,7.20
2019-03-08T16:50:43.224Z,7.30
2019-03-08T16:53:19.379Z,7.20
2019-03-08T16:56:12.183Z,7.00
2019-03-08T16:59:18.177Z,6.90
2019-03-08T17:02:17.368Z,6.90
2019-03-08T17:04:59.577Z,6.80
2019-03-08T17:07:40.540Z,6.80
2019-03-08T17:10:31.129Z,7.00
2019-03-08T17:13:34.130Z,6.80
2019-03-08T17:16:24.775Z,6.80
2019-03-08T17:19:18.535Z,6.70
2019-03-08T17:21:53.405Z,6.50
2019-03-08T17:24:38.956Z,6.60
2019-03-08T17:27:32.530Z,6.50
2019-03-08T17:30:23.043Z,6.40
2019-03-08T17:33:05.020Z,6.50
2019-03-08T17:36:05.772Z,6.40
2019-03-08T17:38:42.019Z,6.40
2019-03-08T17:41:57.695Z,6.40
2019-03-08T17:44:55.372Z,6.30
2019-03-08T17:47:48.305Z,6.30
2019-03-08T17:50:34.814Z,6.20
2019-03-08T17:53:22.368Z,6.10
2019-03-08T17:56:04.391Z,6.00
2019-03-08T17:59:38.674Z,5.90
2019-03-08T18:02:36.546Z,5.80
2019-03-08T18:05:21.918Z,5.90
2019-03-08T18:08:25.690Z,5.60
2019-03-08T18:11:19.413Z,5.70
2019-03-08T18:14:07.881Z,5.60
2019-03-08T18:16:52.505Z,5.60
2019-03-08T18:19:26.862Z,5.60
2019-03-08T18:22:32.467Z,5.50
2019-03-08T18:25:16.524Z,5.50
2019-03-08T18:28:15.811Z,5.40
2019-03-08T18:31:10.018Z,5.40
2019-03-08T18:34:04.761Z,5.30
2019-03-08T18:36:55.634Z,5.40
2019-03-08T18:39:54.430Z,5.40
2019-03-08T18:42:38.372Z,5.40
2019-03-08T18:45:37.775Z,5.30
2019-03-08T18:48:28.799Z,5.20
2019-03-08T18:51:22.772Z,5.10
2019-03-08T18:54:09.672Z,5.20
2019-03-08T18:57:02.060Z,5.20
2019-03-08T18:59:38.459Z,5.10
2019-03-08T19:02:26.594Z,5.10
2019-03-08T19:05:33.149Z,5.10
2019-03-08T19:08:28.416Z,5.10
2019-03-08T19:11:22.546Z,5.20
2019-03-08T19:14:17.149Z,5.10
2019-03-08T19:17:08.246Z,4.90
2019-03-08T19:20:08.067Z,5.00
2019-03-08T19:22:44.911Z,5.10
2019-03-08T19:25:30.658Z,5.10
2019-03-08T19:28:26.254Z,5.00
2019-03-08T19:31:18.912Z,5.10
2019-03-08T19:34:15.709Z,5.20
2019-03-08T19:37:00.904Z,5.10
2019-03-08T19:39:54.711Z,5.10
2019-03-08T19:42:54.389Z,5.10
2019-03-08T19:45:40.647Z,5.10
2019-03-08T19:48:25.407Z,5.20
2019-03-08T19:51:21.503Z,5.20
2019-03-08T19:54:01.997Z,5.20
2019-03-08T19:56:58.781Z,5.10
2019-03-08T19:59:51.124Z,5.00
2019-03-08T20:02:41.576Z,5.10
2019-03-08T20:05:26.360Z,5.00
2019-03-08T20:08:13.120Z,5.00
2019-03-08T20:11:10.061Z,5.00
2019-03-08T20:13:56.660Z,4.90
2019-03-08T20:16:37.221Z,4.70
2019-03-08T20:19:12.612Z,4.70
2019-03-08T20:22:07.509Z,4.70
2019-03-08T20:24:51.737Z,4.60
2019-03-08T20:27:38.770Z,4.70
2019-03-08T20:30:16.667Z,4.60
2019-03-08T20:33:13.239Z,4.60
2019-03-08T20:35:47.278Z,4.70
2019-03-08T20:38:33.946Z,4.60
2019-03-08T20:41:34.309Z,4.60
2019-03-08T20:44:46.842Z,4.60
2019-03-08T20:47:19.542Z,4.60
2019-03-08T20:49:48.355Z,4.50
2019-03-08T20:52:24.229Z,4.40
2019-03-08T20:54:52.986Z,4.40
2019-03-08T20:57:22.059Z,4.50
2019-03-08T20:59:57.288Z,4.40
2019-03-08T21:02:26.066Z,4.50
2019-03-08T21:04:55.237Z,4.50
2019-03-08T21:07:30.864Z,4.60
2019-03-08T21:09:59.622Z,4.70
2019-03-08T21:12:28.360Z,4.70
2019-03-08T21:15:04.093Z,4.60
2019-03-08T21:17:33.223Z,4.70
2019-03-08T21:20:02.065Z,4.60
2019-03-08T21:22:38.125Z,4.50
2019-03-08T21:25:07.809Z,4.60
2019-03-08T21:27:36.598Z,4.60
2019-03-08T21:30:14.118Z,4.60
2019-03-08T21:32:42.956Z,4.70
2019-03-08T21:35:11.869Z,4.60
2019-03-08T21:37:47.316Z,4.70
2019-03-08T21:40:16.167Z,4.70
2019-03-08T21:43:08.431Z,4.60
2019-03-08T21:45:37.198Z,4.60
2019-03-08T21:48:06.023Z,4.60
2019-03-08T21:50:41.583Z,4.60
2019-03-08T21:53:10.373Z,4.60
2019-03-08T21:55:39.120Z,4.70
2019-03-08T21:58:14.795Z,4.70
2019-03-08T22:00:43.728Z,4.70
2019-03-08T22:03:12.416Z,4.60
2019-03-08T22:05:47.989Z,4.50
2019-03-08T22:08:17.937Z,4.60
2019-03-08T22:10:49.483Z,4.60
2019-03-08T22:13:24.538Z,4.60
2019-03-08T22:15:53.760Z,4.60
2019-03-08T22:18:22.536Z,4.70
2019-03-08T22:20:58.112Z,4.70
2019-03-08T22:23:26.819Z,4.70
2019-03-08T22:25:55.611Z,4.70
2019-03-08T22:28:30.583Z,4.70
2019-03-08T22:30:59.420Z,4.70
2019-03-08T22:33:28.206Z,4.60
2019-03-08T22:36:03.817Z,4.60
2019-03-08T22:38:33.026Z,4.50
2019-03-08T22:41:01.789Z,4.50
2019-03-08T22:43:42.945Z,4.50
2019-03-08T22:46:18.407Z,4.50
2019-03-08T22:48:56.350Z,4.50
2019-03-08T22:51:25.088Z,4.50
2019-03-08T22:53:53.767Z,4.50
2019-03-08T22:56:28.539Z,4.40
2019-03-08T22:58:57.220Z,4.40
2019-03-08T23:01:39.602Z,4.30
2019-03-08T23:04:08.284Z,4.30
2019-03-08T23:06:37.019Z,4.30
2019-03-08T23:09:15.483Z,4.30
2019-03-08T23:11:44.248Z,4.30
2019-03-08T23:14:13.120Z,4.20
2019-03-08T23:16:48.082Z,4.30
2019-03-08T23:19:16.806Z,4.40
2019-03-08T23:21:46.475Z,4.30
2019-03-08T23:24:21.979Z,4.40
2019-03-08T23:27:18.663Z,4.40
2019-03-08T23:29:57.262Z,4.40
2019-03-08T23:32:47.794Z,4.40
2019-03-08T23:35:22.910Z,4.50
2019-03-08T23:37:51.639Z,4.40
2019-03-08T23:40:20.312Z,4.40
2019-03-08T23:42:55.125Z,4.40
2019-03-08T23:45:43.946Z,4.50
2019-03-08T23:48:19.417Z,4.50
2019-03-08T23:50:48.143Z,4.50
2019-03-08T23:53:17.458Z,4.50
2019-03-08T23:55:52.827Z,4.50
2019-03-08T23:58:21.790Z,4.50
